Time;durP1;ratioP1;P1;durP2;ratioP2;P2;SDS_P1;SDS_P2;PMS_P1;PMS_P2;Temp;Humidity;BMP_temperature;BMP_pressure;BME280_temperature;BME280_humidity;BME280_pressure;Samples;Min_cycle;Max_cycle;Signal;HPM_P1;HPM_P2
2022/09/25 00:02:00;;;;;;;13.75;10.98;;;;;;;9.98;64.78;95247.34;5117105;28;20211;-70
2022/09/25 00:04:26;;;;;;;12.77;11.43;;;;;;;9.92;64.85;95251.50;5116314;28;20187;-70
2022/09/25 00:06:53;;;;;;;13.82;10.77;;;;;;;9.90;65.27;95248.25;5116475;28;20245;-70
2022/09/25 00:09:22;;;;;;;11.05;9.93;;;;;;;9.89;65.10;95244.69;5116590;28;20188;-70
2022/09/25 00:11:50;;;;;;;11.75;10.65;;;;;;;9.87;65.41;95237.91;5115596;28;20592;-70
2022/09/25 00:14:17;;;;;;;11.70;10.45;;;;;;;9.86;65.15;95242.63;5116071;28;20195;-70
2022/09/25 00:16:44;;;;;;;12.45;10.65;;;;;;;9.82;65.25;95243.66;5116494;28;20184;-70
2022/09/25 00:22:04;;;;;;;10.88;9.88;;;;;;;9.84;65.49;95244.94;5116070;28;20176;-70
2022/09/25 00:24:32;;;;;;;10.98;9.88;;;;;;;9.80;65.00;95237.69;5116222;28;20253;-70
2022/09/25 00:27:00;;;;;;;14.00;10.05;;;;;;;9.75;65.17;95237.94;5114869;28;20593;-70
2022/09/25 00:29:27;;;;;;;11.07;9.75;;;;;;;9.71;65.17;95229.53;5115967;28;20199;-70
2022/09/25 00:31:54;;;;;;;11.57;10.13;;;;;;;9.69;65.41;95240.09;5116262;28;20180;-70
2022/09/25 00:34:21;;;;;;;11.80;10.00;;;;;;;9.63;65.38;95238.72;5115568;28;20207;-70
2022/09/25 00:36:48;;;;;;;9.82;8.82;;;;;;;9.65;65.52;95231.72;5114891;28;20672;-71
2022/09/25 00:39:15;;;;;;;8.82;7.93;;;;;;;9.64;65.45;95241.13;5115038;28;20543;-71
2022/09/25 00:41:42;;;;;;;8.88;8.07;;;;;;;9.67;65.49;95227.84;5114873;28;20199;-71
2022/09/25 00:44:57;;;;;;;11.68;9.40;;;;;;;9.69;65.59;95226.31;5115880;28;20176;-71
2022/09/25 00:47:28;;;;;;;10.13;9.13;;;;;;;9.68;65.44;95223.91;5115805;28;20184;-71
2022/09/25 00:49:56;;;;;;;10.05;9.00;;;;;;;9.63;65.22;95234.03;5116075;28;20187;-71
2022/09/25 00:52:24;;;;;;;9.25;8.23;;;;;;;9.57;65.20;95235.38;5116025;28;20188;-71
2022/09/25 00:54:54;;;;;;;9.85;8.85;;;;;;;9.51;65.12;95235.94;5114955;28;20292;-71
2022/09/25 00:57:25;;;;;;;9.23;8.32;;;;;;;9.47;64.93;95229.50;5115350;28;20196;-71
2022/09/25 00:59:56;;;;;;;8.70;7.68;;;;;;;9.41;64.96;95228.94;5114890;28;20210;-71
2022/09/25 01:02:25;;;;;;;9.38;7.82;;;;;;;9.35;65.23;95227.53;5115084;28;20225;-71
2022/09/25 01:04:52;;;;;;;9.00;8.05;;;;;;;9.33;65.33;95225.16;5114836;28;20207;-71
2022/09/25 01:07:19;;;;;;;8.90;8.07;;;;;;;9.36;65.42;95229.16;5115149;28;20196;-71
2022/09/25 01:09:46;;;;;;;9.30;8.23;;;;;;;9.36;65.53;95227.19;5115187;28;20207;-71
2022/09/25 01:12:13;;;;;;;9.05;8.13;;;;;;;9.34;65.52;95215.75;5115690;28;20180;-71
2022/09/25 01:14:40;;;;;;;9.02;7.88;;;;;;;9.35;65.67;95214.59;5115218;28;20491;-71
2022/09/25 01:17:14;;;;;;;9.20;7.55;;;;;;;9.32;65.89;95211.72;5114799;28;20191;-71
2022/09/25 01:19:49;;;;;;;10.13;8.20;;;;;;;9.31;65.53;95213.66;5114386;28;20248;-71
2022/09/25 01:22:23;;;;;;;8.82;7.93;;;;;;;9.26;65.20;95224.06;5114872;28;20187;-71
2022/09/25 01:24:58;;;;;;;8.40;7.60;;;;;;;9.20;65.44;95214.44;5114481;28;20607;-71
2022/09/25 01:27:31;;;;;;;8.30;7.50;;;;;;;9.16;65.63;95212.38;5115177;28;20180;-71
2022/09/25 01:30:04;;;;;;;8.47;7.67;;;;;;;9.11;65.31;95212.59;5114619;28;20321;-70
2022/09/25 01:32:36;;;;;;;8.60;7.60;;;;;;;9.06;65.64;95218.31;5115561;28;20228;-71
2022/09/25 01:35:06;;;;;;;8.35;7.38;;;;;;;9.05;65.69;95219.44;5114086;28;20200;-70
2022/09/25 01:37:38;;;;;;;9.05;8.15;;;;;;;9.04;65.87;95223.34;5116814;28;20249;-71
2022/09/25 01:40:10;;;;;;;8.90;8.00;;;;;;;9.04;65.80;95217.84;5119386;28;20244;-71
2022/09/25 01:42:40;;;;;;;8.07;7.35;;;;;;;9.06;66.14;95218.31;5119410;28;20191;-71
2022/09/25 01:45:15;;;;;;;7.88;7.07;;;;;;;9.07;66.37;95225.41;5118394;28;20184;-71
2022/09/25 01:47:45;;;;;;;8.35;7.55;;;;;;;9.09;66.38;95230.59;5118952;28;20212;-71
2022/09/25 01:50:16;;;;;;;8.40;7.57;;;;;;;9.08;66.02;95224.28;5118773;28;20234;-71
2022/09/25 01:52:47;;;;;;;8.23;7.38;;;;;;;9.06;66.06;95237.56;5118974;28;20196;-71
2022/09/25 01:55:17;;;;;;;8.45;7.65;;;;;;;9.04;66.24;95236.28;5118300;28;20260;-71
2022/09/25 01:57:48;;;;;;;8.02;7.22;;;;;;;9.02;65.88;95227.56;5119089;28;20196;-71
2022/09/25 02:00:21;;;;;;;8.00;7.25;;;;;;;8.93;65.78;95222.16;5118827;28;20240;-71
2022/09/25 02:02:54;;;;;;;8.00;7.20;;;;;;;8.86;65.66;95219.13;5118837;28;20198;-71
2022/09/25 02:05:23;;;;;;;10.15;8.13;;;;;;;8.81;65.92;95217.41;5118911;28;20607;-71
2022/09/25 02:07:55;;;;;;;8.55;7.75;;;;;;;8.78;65.59;95217.28;5118458;28;20500;-71
2022/09/25 02:10:25;;;;;;;8.05;7.35;;;;;;;8.70;65.74;95207.16;5118235;28;20206;-71
2022/09/25 02:12:55;;;;;;;8.48;7.38;;;;;;;8.68;66.26;95224.81;5117815;28;20207;-70
2022/09/25 02:15:26;;;;;;;8.60;7.70;;;;;;;8.67;66.18;95223.19;5118410;27;20642;-71
2022/09/25 02:20:43;;;;;;;8.38;7.57;;;;;;;8.73;66.36;95221.06;5118607;28;20192;-71
2022/09/25 02:23:18;;;;;;;8.35;7.55;;;;;;;8.73;66.48;95225.75;5117624;28;20204;-71
2022/09/25 02:25:47;;;;;;;9.15;7.70;;;;;;;8.72;66.18;95235.16;5118147;28;20213;-71
2022/09/25 02:28:14;;;;;;;7.95;7.25;;;;;;;8.72;66.68;95237.91;5117554;28;20527;-71
2022/09/25 02:30:43;;;;;;;8.07;7.28;;;;;;;8.72;67.01;95235.16;5117380;28;20231;-71
2022/09/25 02:33:10;;;;;;;8.27;7.30;;;;;;;8.75;66.60;95221.53;5117569;28;20603;-71
2022/09/25 02:35:37;;;;;;;8.40;7.57;;;;;;;8.73;66.37;95221.06;5118356;28;20211;-71
2022/09/25 02:38:04;;;;;;;8.10;7.40;;;;;;;8.68;66.35;95227.56;5118366;28;20188;-71
2022/09/25 02:40:36;;;;;;;9.23;7.50;;;;;;;8.66;66.42;95232.59;5117467;28;20207;-71
2022/09/25 02:43:10;;;;;;;8.00;7.15;;;;;;;8.64;66.45;95223.88;5117323;28;20199;-71
2022/09/25 02:45:45;;;;;;;7.97;7.18;;;;;;;8.64;66.55;95229.38;5118166;28;20175;-71
2022/09/25 02:48:16;;;;;;;8.52;7.53;;;;;;;8.64;66.24;95232.13;5116978;28;20195;-71
2022/09/25 02:50:47;;;;;;;10.05;7.55;;;;;;;8.60;66.23;95231.19;5117644;28;20184;-70
2022/09/25 02:53:17;;;;;;;8.70;7.78;;;;;;;8.61;66.69;95230.06;5117027;28;20187;-70
2022/09/25 02:55:48;;;;;;;7.72;6.95;;;;;;;8.63;66.35;95226.97;5117872;28;20204;-70
2022/09/25 02:58:18;;;;;;;8.63;7.38;;;;;;;8.62;66.40;95225.34;5117154;28;20196;-71
2022/09/25 03:00:49;;;;;;;8.45;7.55;;;;;;;8.61;66.45;95215.50;5117026;28;20191;-71
2022/09/25 03:03:18;;;;;;;8.57;7.07;;;;;;;8.63;66.50;95218.72;5117529;28;20630;-71
2022/09/25 03:05:45;;;;;;;8.40;7.60;;;;;;;8.61;66.60;95219.06;5117392;28;20624;-71
2022/09/25 03:10:58;;;;;;;9.20;8.30;;;;;;;8.60;66.43;95225.69;5117270;28;20176;-71
2022/09/25 03:13:30;;;;;;;8.88;7.97;;;;;;;8.59;66.42;95217.78;5117686;28;20268;-71
2022/09/25 03:16:01;;;;;;;10.23;7.90;;;;;;;8.55;66.49;95220.41;5117017;28;20306;-70
2022/09/25 03:18:30;;;;;;;8.95;8.05;;;;;;;8.54;66.61;95229.00;5116272;28;20628;-70
2022/09/25 03:20:56;;;;;;;9.63;8.63;;;;;;;8.51;66.97;95224.97;5116220;28;20196;-70
2022/09/25 03:23:23;;;;;;;8.75;7.95;;;;;;;8.52;67.38;95228.50;5117172;28;20188;-71
2022/09/25 03:25:53;;;;;;;8.80;8.00;;;;;;;8.56;67.46;95222.00;5116609;28;20244;-71
2022/09/25 03:28:20;;;;;;;10.10;8.38;;;;;;;8.59;67.48;95215.03;5116523;28;20180;-70
2022/09/25 03:31:13;;;;;;;9.90;8.45;;;;;;;8.61;67.51;95204.50;5116068;28;20238;-70
2022/09/25 03:33:42;;;;;;;9.45;8.07;;;;;;;8.61;67.45;95215.50;5116667;28;20192;-70
2022/09/25 03:36:11;;;;;;;8.25;7.45;;;;;;;8.60;67.54;95214.69;5117256;28;20235;-71
2022/09/25 03:38:40;;;;;;;8.93;8.00;;;;;;;8.59;67.30;95220.53;5117149;28;20283;-71
2022/09/25 03:41:07;;;;;;;10.38;8.57;;;;;;;8.57;67.11;95225.53;5116068;28;20211;-71
2022/09/25 03:43:35;;;;;;;8.75;7.85;;;;;;;8.55;67.22;95227.84;5116949;28;20582;-71
2022/09/25 03:46:02;;;;;;;9.15;8.23;;;;;;;8.56;67.57;95218.44;5116621;28;20590;-71
2022/09/25 03:48:28;;;;;;;8.57;7.70;;;;;;;8.54;67.37;95216.03;5116995;28;20191;-71
2022/09/25 03:50:57;;;;;;;9.02;7.97;;;;;;;8.52;67.44;95220.25;5116817;28;20184;-71
2022/09/25 03:53:24;;;;;;;8.98;8.05;;;;;;;8.51;67.54;95222.22;5115956;28;20204;-71
2022/09/25 03:55:51;;;;;;;9.27;8.35;;;;;;;8.49;67.54;95226.44;5116570;28;20235;-71
2022/09/25 03:58:20;;;;;;;10.60;8.13;;;;;;;8.44;67.71;95217.25;5116171;28;20596;-71
2022/09/25 04:00:47;;;;;;;8.98;7.72;;;;;;;8.41;67.39;95220.66;5115662;28;20188;-71
2022/09/25 04:03:15;;;;;;;10.00;8.68;;;;;;;8.34;67.17;95220.34;5115455;28;20252;-71
2022/09/25 04:05:42;;;;;;;9.63;8.73;;;;;;;8.32;67.44;95224.59;5116613;28;20192;-71
2022/09/25 04:08:11;;;;;;;10.30;9.00;;;;;;;8.28;67.05;95234.63;5116375;28;20187;-71
2022/09/25 04:10:39;;;;;;;9.27;8.17;;;;;;;8.24;67.55;95230.94;5116553;28;20184;-71
2022/09/25 04:13:06;;;;;;;9.52;8.43;;;;;;;8.25;67.30;95233.38;5116171;28;20187;-70
2022/09/25 04:15:33;;;;;;;9.57;8.50;;;;;;;8.22;67.59;95227.75;5116789;28;20209;-71
2022/09/25 04:18:00;;;;;;;9.60;8.30;;;;;;;8.23;67.45;95232.88;5116143;28;20219;-71
2022/09/25 04:20:27;;;;;;;9.57;8.55;;;;;;;8.21;67.54;95246.19;5116005;28;20576;-71
2022/09/25 04:22:54;;;;;;;10.65;8.80;;;;;;;8.22;67.69;95235.97;5116084;28;20195;-71
2022/09/25 04:25:24;;;;;;;10.65;8.82;;;;;;;8.19;67.58;95234.69;5115535;28;20201;-71
2022/09/25 04:27:51;;;;;;;9.65;8.45;;;;;;;8.19;67.82;95235.50;5115693;28;20567;-71
2022/09/25 04:30:18;;;;;;;9.63;8.70;;;;;;;8.21;68.11;95240.69;5115988;28;20700;-71
2022/09/25 04:35:28;;;;;;;9.90;9.00;;;;;;;8.23;68.04;95243.88;5114815;28;20192;-71
2022/09/25 04:37:55;;;;;;;11.85;9.23;;;;;;;8.25;67.77;95243.56;5115355;28;20203;-72
2022/09/25 04:40:23;;;;;;;11.60;9.63;;;;;;;8.23;67.85;95243.09;5116264;28;20191;-71
2022/09/25 04:42:55;;;;;;;11.88;10.68;;;;;;;8.20;67.97;95234.34;5115960;27;20175;-71
2022/09/25 04:45:22;;;;;;;10.55;9.55;;;;;;;8.22;67.93;95241.47;5116165;28;20198;-71
2022/09/25 04:47:48;;;;;;;11.95;10.07;;;;;;;8.18;67.65;95244.88;5114897;28;20191;-71
2022/09/25 04:50:15;;;;;;;12.27;10.18;;;;;;;8.14;67.55;95240.41;5115005;28;20211;-70
2022/09/25 04:52:42;;;;;;;11.43;10.30;;;;;;;8.15;67.99;95239.25;5115571;28;20191;-70
2022/09/25 04:55:09;;;;;;;11.20;10.00;;;;;;;8.14;67.56;95238.47;5115450;28;20627;-70
2022/09/25 04:57:38;;;;;;;12.70;10.93;;;;;;;8.12;67.55;95240.72;5114966;28;20239;-70
2022/09/25 05:00:06;;;;;;;12.30;10.20;;;;;;;8.12;67.87;95239.91;5115029;28;20207;-70
2022/09/25 05:02:33;;;;;;;12.02;10.30;;;;;;;8.14;68.19;95243.94;5114994;28;20286;-70
2022/09/25 05:05:00;;;;;;;13.80;10.82;;;;;;;8.15;67.76;95245.56;5115357;28;20583;-70
2022/09/25 05:07:26;;;;;;;11.98;10.20;;;;;;;8.19;68.05;95245.69;5114828;28;20198;-71
2022/09/25 05:09:54;;;;;;;10.77;9.30;;;;;;;8.21;68.11;95243.44;5115748;28;20192;-71
2022/09/25 05:12:20;;;;;;;12.18;10.10;;;;;;;8.27;68.08;95246.75;5115656;28;20623;-71
2022/09/25 05:14:49;;;;;;;11.45;10.25;;;;;;;8.32;68.03;95244.63;5119575;28;20600;-71
2022/09/25 05:17:16;;;;;;;10.77;9.73;;;;;;;8.40;68.03;95234.75;5120001;28;20203;-71
2022/09/25 05:19:42;;;;;;;10.80;9.73;;;;;;;8.45;67.71;95240.03;5119601;28;20599;-71
2022/09/25 05:22:09;;;;;;;11.88;10.65;;;;;;;8.51;67.75;95235.16;5118810;28;20192;-71
2022/09/25 05:24:37;;;;;;;13.25;9.77;;;;;;;8.53;67.86;95230.09;5119928;28;20187;-71
2022/09/25 05:27:04;;;;;;;11.18;9.43;;;;;;;8.58;68.13;95227.19;5119955;28;20237;-71
2022/09/25 05:29:31;;;;;;;12.57;10.38;;;;;;;8.66;68.23;95232.59;5119292;28;20432;-70
2022/09/25 05:31:59;;;;;;;11.85;10.32;;;;;;;8.73;68.13;95218.31;5118589;28;20489;-69
2022/09/25 05:34:27;;;;;;;12.55;9.30;;;;;;;8.81;67.95;95217.41;5118837;28;20278;-70
2022/09/25 05:36:54;;;;;;;10.98;9.68;;;;;;;8.89;68.30;95229.47;5120076;28;20219;-70
2022/09/25 05:39:20;;;;;;;9.80;8.90;;;;;;;8.98;68.01;95241.22;5118695;28;20607;-70
2022/09/25 05:41:47;;;;;;;10.73;9.63;;;;;;;9.06;68.11;95234.00;5118908;28;20210;-70
2022/09/25 05:44:14;;;;;;;12.80;8.93;;;;;;;9.12;68.00;95232.66;5119483;28;20180;-70
2022/09/25 05:46:41;;;;;;;10.02;9.02;;;;;;;9.20;67.45;95233.72;5118488;28;20187;-70
2022/09/25 05:49:09;;;;;;;14.30;12.90;;;;;;;9.27;67.63;95237.50;5118094;28;20245;-70
2022/09/25 05:51:36;;;;;;;23.02;18.90;;;;;;;9.33;67.92;95232.56;5119369;28;20188;-70
2022/09/25 05:54:02;;;;;;;22.77;20.38;;;;;;;9.37;67.57;95239.84;5119026;28;20244;-70
2022/09/25 05:56:29;;;;;;;22.67;19.25;;;;;;;9.44;67.63;95243.97;5118867;28;20217;-70
2022/09/25 05:58:57;;;;;;;18.58;16.58;;;;;;;9.49;67.37;95244.56;5117775;28;20199;-70
2022/09/25 06:01:24;;;;;;;17.17;15.05;;;;;;;9.53;67.04;95244.66;5119049;28;20198;-70
2022/09/25 06:03:51;;;;;;;14.90;13.30;;;;;;;9.58;66.82;95236.19;5118894;28;20188;-70
2022/09/25 06:06:19;;;;;;;14.90;13.40;;;;;;;9.63;67.00;95234.03;5119022;28;20184;-70
2022/09/25 06:08:46;;;;;;;17.08;14.35;;;;;;;9.68;66.70;95221.97;5117810;28;20290;-70
2022/09/25 06:11:13;;;;;;;15.10;13.55;;;;;;;9.72;66.35;95216.56;5117964;28;20187;-70
2022/09/25 06:13:45;;;;;;;16.80;14.93;;;;;;;9.75;66.34;95221.41;5118057;28;20196;-70
2022/09/25 06:16:18;;;;;;;15.80;14.00;;;;;;;9.79;66.27;95222.31;5118562;28;20595;-70
2022/09/25 06:18:46;;;;;;;14.55;13.05;;;;;;;9.86;66.47;95228.84;5117936;28;20211;-70
2022/09/25 06:21:12;;;;;;;13.18;11.77;;;;;;;9.93;66.41;95233.00;5117891;28;20187;-70
2022/09/25 06:23:41;;;;;;;12.05;10.88;;;;;;;9.99;65.73;95237.94;5118339;28;20524;-70
2022/09/25 06:26:09;;;;;;;10.27;9.32;;;;;;;10.02;65.52;95241.94;5118887;28;20188;-70
2022/09/25 06:28:35;;;;;;;10.07;9.07;;;;;;;10.06;65.13;95243.69;5117664;28;20239;-70
2022/09/25 06:31:04;;;;;;;10.63;9.20;;;;;;;10.09;64.55;95234.72;5118227;28;20235;-70
2022/09/25 06:33:30;;;;;;;11.18;9.98;;;;;;;10.15;64.81;95240.78;5118222;28;20188;-70
2022/09/25 06:35:57;;;;;;;11.07;10.00;;;;;;;10.20;64.92;95231.47;5118130;28;20195;-70
2022/09/25 06:38:24;;;;;;;11.98;9.35;;;;;;;10.24;64.49;95240.66;5118453;28;20226;-70
2022/09/25 06:40:52;;;;;;;11.80;9.68;;;;;;;10.29;64.61;95233.00;5117253;28;20196;-70
2022/09/25 06:43:19;;;;;;;9.93;8.93;;;;;;;10.35;63.79;95241.84;5118007;28;20219;-70
2022/09/25 06:45:47;;;;;;;8.43;7.63;;;;;;;10.38;63.89;95235.59;5118222;28;20245;-70
2022/09/25 06:48:15;;;;;;;8.63;7.72;;;;;;;10.42;63.31;95233.78;5117341;28;20223;-70
2022/09/25 06:50:44;;;;;;;8.77;7.50;;;;;;;10.47;63.33;95232.75;5117502;28;20230;-70
2022/09/25 06:53:12;;;;;;;7.82;6.97;;;;;;;10.52;62.84;95230.53;5117076;28;20191;-70
2022/09/25 06:55:39;;;;;;;9.52;7.53;;;;;;;10.58;62.87;95222.81;5117961;28;20180;-70
2022/09/25 06:58:10;;;;;;;8.63;7.93;;;;;;;10.64;62.14;95226.97;5116932;28;20555;-70
2022/09/25 07:00:37;;;;;;;8.07;7.30;;;;;;;10.69;62.27;95237.72;5117122;28;20517;-70
2022/09/25 07:05:50;;;;;;;7.57;6.90;;;;;;;10.81;62.27;95253.44;5117682;28;20172;-69
2022/09/25 07:08:19;;;;;;;7.30;6.53;;;;;;;10.92;62.14;95262.03;5099752;28;20203;-70
2022/09/25 07:10:49;;;;;;;8.00;7.30;;;;;;;11.01;62.12;95263.50;5117614;28;20184;-69
2022/09/25 07:13:18;;;;;;;8.35;7.55;;;;;;;11.06;61.70;95262.44;5117574;28;20199;-70
2022/09/25 07:15:51;;;;;;;9.05;8.23;;;;;;;11.09;61.27;95257.00;5117035;28;20610;-69
2022/09/25 07:18:19;;;;;;;10.00;8.88;;;;;;;11.13;60.80;95270.91;5117495;28;20212;-69
2022/09/25 07:20:46;;;;;;;7.90;7.20;;;;;;;11.17;60.78;95277.34;5117503;28;20249;-70
2022/09/25 07:23:13;;;;;;;10.13;9.13;;;;;;;11.27;60.95;95273.28;5117344;28;20191;-69
2022/09/25 07:25:40;;;;;;;9.00;7.88;;;;;;;11.40;60.72;95268.47;5116874;28;20672;-69
2022/09/25 07:28:08;;;;;;;8.95;8.15;;;;;;;11.52;60.84;95266.47;5117194;28;20203;-69
2022/09/25 07:30:36;;;;;;;9.15;8.25;;;;;;;11.71;60.58;95264.97;5116283;28;20331;-69
2022/09/25 07:33:03;;;;;;;8.93;8.05;;;;;;;11.89;60.10;95257.19;5116161;28;20256;-69
2022/09/25 07:35:29;;;;;;;8.75;7.68;;;;;;;12.07;59.46;95252.88;5116770;28;20184;-70
2022/09/25 07:37:57;;;;;;;10.30;8.88;;;;;;;12.24;58.92;95246.19;5117294;28;20212;-70
2022/09/25 07:40:25;;;;;;;9.90;8.60;;;;;;;12.41;58.60;95237.47;5115938;28;20237;-70
2022/09/25 07:42:52;;;;;;;9.02;8.15;;;;;;;12.56;57.77;95229.50;5117017;28;20191;-70
2022/09/25 07:45:19;;;;;;;11.35;8.90;;;;;;;12.63;57.49;95224.13;5117201;28;20245;-69
2022/09/25 07:47:47;;;;;;;11.02;10.02;;;;;;;12.73;56.95;95226.31;5116370;28;20191;-69
2022/09/25 07:50:13;;;;;;;10.65;8.73;;;;;;;12.73;56.82;95223.56;5115935;28;20264;-69
2022/09/25 07:52:40;;;;;;;9.52;7.80;;;;;;;12.75;56.84;95216.50;5115978;28;20200;-70
2022/09/25 07:55:09;;;;;;;8.95;7.43;;;;;;;12.84;56.23;95212.72;5117055;28;20207;-70
2022/09/25 07:57:36;;;;;;;11.18;7.88;;;;;;;12.95;56.52;95202.66;5116689;28;20517;-70
2022/09/25 08:00:03;;;;;;;9.75;7.50;;;;;;;13.11;55.66;95197.84;5116038;28;20267;-70
2022/09/25 08:02:30;;;;;;;7.68;6.97;;;;;;;13.25;55.28;95211.19;5116344;28;20583;-70
2022/09/25 08:04:59;;;;;;;7.82;6.90;;;;;;;13.41;54.39;95211.09;5115626;28;20568;-69
2022/09/25 08:07:25;;;;;;;7.97;7.18;;;;;;;13.55;53.91;95218.88;5116561;28;20180;-69
2022/09/25 08:09:52;;;;;;;7.25;6.55;;;;;;;13.61;54.07;95206.28;5115976;28;20204;-69
2022/09/25 08:12:19;;;;;;;8.35;7.55;;;;;;;13.72;54.06;95208.09;5115556;28;20184;-69
2022/09/25 08:14:46;;;;;;;7.72;6.88;;;;;;;13.88;53.39;95207.16;5116395;27;20199;-69
2022/09/25 08:17:13;;;;;;;7.38;6.68;;;;;;;13.95;53.29;95202.53;5116106;28;20226;-69
2022/09/25 08:19:39;;;;;;;7.03;6.43;;;;;;;14.02;52.74;95196.31;5115216;28;20203;-69
2022/09/25 08:22:08;;;;;;;7.28;6.68;;;;;;;14.16;52.47;95190.16;5116055;28;20627;-70
2022/09/25 08:24:35;;;;;;;6.90;6.20;;;;;;;14.23;51.25;95190.28;5116331;28;20194;-69
2022/09/25 08:27:01;;;;;;;7.80;6.18;;;;;;;14.34;51.29;95187.66;5114895;28;20225;-69
2022/09/25 08:29:29;;;;;;;6.40;5.80;;;;;;;14.44;50.66;95173.94;5114922;28;20216;-69
2022/09/25 08:31:56;;;;;;;7.00;6.40;;;;;;;14.52;49.96;95179.63;5115500;28;20210;-69
2022/09/25 08:34:23;;;;;;;6.13;5.63;;;;;;;14.58;49.23;95176.16;5116150;28;20187;-70
2022/09/25 08:36:49;;;;;;;7.13;5.50;;;;;;;14.60;48.11;95164.69;5115216;28;20299;-70
2022/09/25 08:39:18;;;;;;;6.00;5.40;;;;;;;14.60;49.84;95165.47;5115917;28;20184;-70
2022/09/25 08:41:47;;;;;;;6.45;5.90;;;;;;;14.67;49.79;95170.34;5115226;28;20192;-70
2022/09/25 08:44:21;;;;;;;7.45;6.75;;;;;;;14.88;48.88;95176.13;5115613;28;20603;-70
2022/09/25 08:49:42;;;;;;;6.68;6.07;;;;;;;15.03;48.72;95173.53;5115140;28;20198;-70
2022/09/25 08:52:14;;;;;;;5.95;5.40;;;;;;;15.21;48.03;95179.28;5115356;28;20196;-69
2022/09/25 08:54:43;;;;;;;6.32;5.68;;;;;;;15.25;47.75;95177.34;5116093;28;20184;-70
2022/09/25 08:57:16;;;;;;;6.72;6.13;;;;;;;15.23;47.57;95177.72;5115203;28;20215;-70
2022/09/25 08:59:45;;;;;;;7.28;6.57;;;;;;;15.33;48.19;95159.59;5115534;28;20188;-70
2022/09/25 09:02:14;;;;;;;6.55;5.95;;;;;;;15.58;46.61;95159.84;5115732;28;20188;-70
2022/09/25 09:04:44;;;;;;;6.43;5.82;;;;;;;15.61;47.99;95156.25;5115346;28;20194;-70
2022/09/25 09:07:14;;;;;;;7.22;6.03;;;;;;;15.70;46.30;95159.56;5114963;28;20195;-69
2022/09/25 09:09:44;;;;;;;6.70;6.10;;;;;;;15.81;46.81;95149.34;5115332;28;20199;-69
2022/09/25 09:12:13;;;;;;;6.93;6.18;;;;;;;15.91;47.33;95144.25;5115121;28;20199;-70
2022/09/25 09:14:44;;;;;;;6.35;5.75;;;;;;;16.02;46.54;95145.13;5114992;28;20630;-70
2022/09/25 09:17:17;;;;;;;6.53;5.93;;;;;;;16.20;46.36;95137.72;5114441;28;20591;-69
2022/09/25 09:19:46;;;;;;;5.93;5.40;;;;;;;16.31;45.96;95135.78;5114628;28;20207;-69
2022/09/25 09:22:15;;;;;;;6.68;5.38;;;;;;;16.35;44.25;95133.03;5115617;28;20192;-69
2022/09/25 09:24:54;;;;;;;5.75;5.25;;;;;;;16.45;44.58;95134.25;5114759;28;20195;-69
2022/09/25 09:27:32;;;;;;;6.05;5.40;;;;;;;16.49;44.17;95130.34;5114804;28;20199;-69
2022/09/25 09:30:09;;;;;;;6.15;5.53;;;;;;;16.42;44.74;95130.28;5115858;28;20235;-69
2022/09/25 09:33:05;;;;;;;7.03;5.55;;;;;;;16.33;43.71;95130.63;5115666;28;20285;-69
2022/09/25 09:35:36;;;;;;;5.80;5.30;;;;;;;16.21;44.41;95125.38;5112100;28;20216;-69
2022/09/25 09:38:13;;;;;;;6.50;5.40;;;;;;;16.27;45.21;95120.25;5115427;28;20203;-69
2022/09/25 09:40:59;;;;;;;5.90;5.40;;;;;;;16.58;44.88;95119.63;5115398;28;20274;-69
2022/09/25 09:43:41;;;;;;;6.18;5.50;;;;;;;16.91;43.19;95120.59;5115593;28;20176;-69
2022/09/25 09:46:15;;;;;;;6.18;5.57;;;;;;;16.99;43.92;95104.69;5115482;28;20188;-70
2022/09/25 09:48:49;;;;;;;5.47;4.97;;;;;;;17.07;43.81;95101.56;5114427;28;20299;-69
2022/09/25 09:51:19;;;;;;;5.82;5.30;;;;;;;17.22;43.22;95105.16;5115290;28;20180;-69
2022/09/25 09:53:49;;;;;;;6.25;5.68;;;;;;;17.14;41.97;95103.56;5114807;28;20192;-69
2022/09/25 09:56:20;;;;;;;5.53;4.93;;;;;;;17.11;42.82;95109.13;5114500;28;20199;-69
2022/09/25 09:58:50;;;;;;;7.40;5.60;;;;;;;17.28;44.45;95111.97;5116876;28;20207;-69
2022/09/25 10:01:19;;;;;;;6.18;5.53;;;;;;;17.50;43.09;95111.97;5118142;28;20244;-69
2022/09/25 10:03:48;;;;;;;5.93;5.15;;;;;;;17.66;42.84;95106.81;5119311;28;20180;-69
2022/09/25 10:06:16;;;;;;;5.43;4.88;;;;;;;17.60;42.82;95097.25;5118898;28;20179;-71
2022/09/25 10:08:43;;;;;;;6.43;5.20;;;;;;;17.69;41.87;95096.88;5117726;28;20569;-70
2022/09/25 10:11:15;;;;;;;6.22;5.30;;;;;;;17.84;42.10;95092.91;5118907;28;20184;-70
2022/09/25 10:13:43;;;;;;;5.90;4.65;;;;;;;17.73;41.24;95092.06;5118094;28;20248;-70
2022/09/25 10:16:12;;;;;;;5.63;5.13;;;;;;;17.55;42.16;95084.50;5117613;28;20192;-70
2022/09/25 10:18:43;;;;;;;5.90;5.30;;;;;;;17.58;41.54;95079.34;5117882;28;20212;-69
2022/09/25 10:21:13;;;;;;;5.45;4.90;;;;;;;17.64;42.38;95075.72;5118073;28;20205;-70
2022/09/25 10:23:42;;;;;;;6.47;4.93;;;;;;;17.73;42.57;95078.13;5118250;28;20184;-70
2022/09/25 10:26:24;;;;;;;5.95;4.55;;;;;;;17.82;42.83;95077.75;5118770;28;20195;-69
2022/09/25 10:28:56;;;;;;;5.65;5.05;;;;;;;17.95;41.62;95070.56;5118494;28;20176;-70
2022/09/25 10:31:24;;;;;;;6.85;4.65;;;;;;;17.99;41.19;95063.00;5118155;28;20246;-70
2022/09/25 10:34:03;;;;;;;5.45;4.70;;;;;;;18.00;42.20;95061.78;5117773;28;20188;-69
2022/09/25 10:36:37;;;;;;;4.90;4.28;;;;;;;18.21;40.85;95055.38;5117500;28;20248;-69
2022/09/25 10:39:05;;;;;;;6.28;4.70;;;;;;;18.19;40.70;95060.53;5117259;28;20220;-69
2022/09/25 10:41:41;;;;;;;5.78;4.53;;;;;;;18.17;41.69;95058.16;5117566;28;20229;-69
2022/09/25 10:44:21;;;;;;;4.72;4.13;;;;;;;18.19;41.63;95054.97;5117868;28;20191;-69
2022/09/25 10:52:18;;;;;;;5.55;3.95;;;;;;;18.60;40.73;95048.88;5117123;28;20198;-69
2022/09/25 10:54:45;;;;;;;4.85;4.35;;;;;;;18.69;40.28;95049.22;5117807;28;20179;-68
2022/09/25 10:57:17;;;;;;;4.85;4.55;;;;;;;18.76;39.81;95038.84;5118089;28;20309;-68
2022/09/25 10:59:48;;;;;;;5.15;4.30;;;;;;;18.72;40.46;95045.66;5118042;28;20238;-69
2022/09/25 11:02:23;;;;;;;4.78;4.35;;;;;;;18.82;40.10;95035.63;5117032;28;20205;-68
2022/09/25 11:04:51;;;;;;;4.70;4.25;;;;;;;18.86;40.39;95028.03;5117866;28;20179;-69
2022/09/25 11:07:26;;;;;;;4.00;3.60;;;;;;;18.95;39.69;95029.19;5117971;28;20214;-69
2022/09/25 11:09:53;;;;;;;5.13;4.20;;;;;;;18.94;40.09;95019.19;5116965;28;20198;-69
2022/09/25 11:12:23;;;;;;;4.15;3.85;;;;;;;19.00;38.81;95023.16;5118058;28;20210;-69
2022/09/25 11:14:57;;;;;;;3.70;3.35;;;;;;;19.18;37.67;95019.44;5117714;28;20264;-69
2022/09/25 11:17:32;;;;;;;4.53;3.75;;;;;;;19.23;37.84;95019.78;5117534;28;20481;-68
2022/09/25 11:20:26;;;;;;;4.18;3.80;;;;;;;19.36;38.44;95016.53;5117250;28;20216;-69
2022/09/25 11:22:59;;;;;;;3.95;3.65;;;;;;;19.47;38.58;95011.63;5116635;28;20200;-69
2022/09/25 11:25:32;;;;;;;4.63;3.95;;;;;;;19.43;37.43;95002.50;5116565;28;20214;-69
2022/09/25 11:28:03;;;;;;;5.18;3.70;;;;;;;19.36;37.48;95003.34;5117613;27;20187;-69
2022/09/25 11:30:38;;;;;;;5.30;4.13;;;;;;;19.33;38.94;95003.34;5117525;28;20706;-69
2022/09/25 11:33:12;;;;;;;4.20;3.80;;;;;;;19.57;37.43;94993.16;5116246;28;20191;-69
2022/09/25 11:35:45;;;;;;;4.10;3.78;;;;;;;19.52;37.99;94993.63;5117347;28;20200;-68
2022/09/25 11:38:17;;;;;;;4.55;3.78;;;;;;;19.58;37.61;94991.97;5116554;28;20245;-69
2022/09/25 11:43:46;;;;;;;3.33;3.03;;;;;;;19.65;36.47;94989.13;5115924;28;20196;-69
2022/09/25 11:46:20;;;;;;;3.92;3.63;;;;;;;19.79;36.33;94982.59;5116399;28;20230;-69
2022/09/25 11:48:57;;;;;;;3.47;3.28;;;;;;;19.84;35.43;94985.75;5117017;28;20198;-69
2022/09/25 11:51:40;;;;;;;3.40;3.10;;;;;;;19.80;35.84;94970.22;5116106;28;20215;-69
2022/09/25 11:54:18;;;;;;;3.55;3.20;;;;;;;19.85;36.10;94970.53;5116222;28;20206;-69
2022/09/25 11:56:49;;;;;;;5.10;3.50;;;;;;;19.88;35.61;94958.53;5115622;28;20650;-69
2022/09/25 11:59:27;;;;;;;3.60;3.30;;;;;;;19.98;35.87;94956.81;5116454;28;20211;-69
2022/09/25 12:02:01;;;;;;;4.45;3.42;;;;;;;20.06;34.70;94958.31;5116819;28;20253;-69
2022/09/25 12:04:43;;;;;;;3.28;2.97;;;;;;;20.11;33.92;94957.06;5116588;28;20190;-69
2022/09/25 12:07:54;;;;;;;2.65;2.45;;;;;;;20.27;33.13;94962.91;5116677;28;20195;-69
2022/09/25 12:10:31;;;;;;;3.10;2.53;;;;;;;20.38;33.31;94973.97;5102746;28;20519;-69
2022/09/25 12:13:01;;;;;;;2.95;2.75;;;;;;;20.37;33.27;94963.97;5115471;28;20199;-69